sensor_id;sensor_type;location;lat;lon;timestamp;noise_LAeq;noise_LA_min;noise_LA_max;noise_LA01;noise_LA95
70740;Laerm;58330;51.888;11.052;2023-05-07T00:01:08;33.41;32.13;36.09;;
70740;Laerm;58330;51.888;11.052;2023-05-07T00:03:36;33.45;32.00;34.67;;
70740;Laerm;58330;51.888;11.052;2023-05-07T00:06:05;33.39;32.02;34.97;;
70740;Laerm;58330;51.888;11.052;2023-05-07T00:08:32;33.40;32.04;34.76;;
70740;Laerm;58330;51.888;11.052;2023-05-07T00:10:59;33.40;32.02;34.59;;
70740;Laerm;58330;51.888;11.052;2023-05-07T00:13:26;33.44;32.25;34.99;;
70740;Laerm;58330;51.888;11.052;2023-05-07T00:15:52;33.40;31.97;34.49;;
70740;Laerm;58330;51.888;11.052;2023-05-07T00:18:18;33.42;32.18;34.66;;
70740;Laerm;58330;51.888;11.052;2023-05-07T00:20:47;33.41;32.11;34.62;;
70740;Laerm;58330;51.888;11.052;2023-05-07T00:23:13;33.45;32.23;35.89;;
70740;Laerm;58330;51.888;11.052;2023-05-07T00:25:40;33.43;31.98;34.76;;
70740;Laerm;58330;51.888;11.052;2023-05-07T00:28:07;33.43;32.14;34.93;;
70740;Laerm;58330;51.888;11.052;2023-05-07T00:30:33;33.38;32.15;34.62;;
70740;Laerm;58330;51.888;11.052;2023-05-07T00:33:00;33.39;32.20;34.73;;
70740;Laerm;58330;51.888;11.052;2023-05-07T00:35:26;33.41;32.17;34.99;;
70740;Laerm;58330;51.888;11.052;2023-05-07T00:37:52;33.56;32.24;46.96;;
70740;Laerm;58330;51.888;11.052;2023-05-07T00:40:19;33.54;32.15;36.51;;
70740;Laerm;58330;51.888;11.052;2023-05-07T00:42:45;33.62;32.18;38.67;;
70740;Laerm;58330;51.888;11.052;2023-05-07T00:45:13;33.66;32.13;36.47;;
70740;Laerm;58330;51.888;11.052;2023-05-07T00:47:39;35.35;32.22;44.31;;
70740;Laerm;58330;51.888;11.052;2023-05-07T00:50:06;37.54;32.32;44.45;;
70740;Laerm;58330;51.888;11.052;2023-05-07T00:52:34;36.65;32.69;42.47;;
70740;Laerm;58330;51.888;11.052;2023-05-07T00:55:01;34.89;32.19;43.86;;
70740;Laerm;58330;51.888;11.052;2023-05-07T00:57:31;33.49;32.16;35.20;;
70740;Laerm;58330;51.888;11.052;2023-05-07T00:59:58;33.48;32.13;35.91;;
70740;Laerm;58330;51.888;11.052;2023-05-07T01:02:26;33.49;32.13;34.84;;
70740;Laerm;58330;51.888;11.052;2023-05-07T01:04:52;33.46;31.98;35.48;;
70740;Laerm;58330;51.888;11.052;2023-05-07T01:07:18;33.55;32.07;35.51;;
70740;Laerm;58330;51.888;11.052;2023-05-07T01:09:45;33.49;32.17;36.23;;
70740;Laerm;58330;51.888;11.052;2023-05-07T01:12:11;33.57;32.25;35.05;;
70740;Laerm;58330;51.888;11.052;2023-05-07T01:14:39;33.54;32.18;34.95;;
70740;Laerm;58330;51.888;11.052;2023-05-07T01:17:05;33.45;32.00;34.96;;
70740;Laerm;58330;51.888;11.052;2023-05-07T01:19:33;33.37;32.02;34.60;;
70740;Laerm;58330;51.888;11.052;2023-05-07T01:22:01;33.37;31.87;34.68;;
70740;Laerm;58330;51.888;11.052;2023-05-07T01:24:29;33.36;32.17;34.62;;
70740;Laerm;58330;51.888;11.052;2023-05-07T01:26:56;33.36;32.04;34.49;;
70740;Laerm;58330;51.888;11.052;2023-05-07T01:29:36;33.34;32.00;34.56;;
70740;Laerm;58330;51.888;11.052;2023-05-07T01:32:02;33.36;32.22;34.58;;
70740;Laerm;58330;51.888;11.052;2023-05-07T01:34:30;33.33;32.13;34.60;;
70740;Laerm;58330;51.888;11.052;2023-05-07T01:36:57;33.28;32.11;34.56;;
70740;Laerm;58330;51.888;11.052;2023-05-07T01:39:25;33.34;32.00;34.88;;
70740;Laerm;58330;51.888;11.052;2023-05-07T01:41:53;33.40;32.00;34.73;;
70740;Laerm;58330;51.888;11.052;2023-05-07T01:44:19;33.36;32.10;34.43;;
70740;Laerm;58330;51.888;11.052;2023-05-07T01:46:46;33.36;32.00;34.72;;
70740;Laerm;58330;51.888;11.052;2023-05-07T01:49:13;33.39;32.16;35.01;;
70740;Laerm;58330;51.888;11.052;2023-05-07T01:51:40;33.38;32.01;35.39;;
70740;Laerm;58330;51.888;11.052;2023-05-07T01:54:07;33.40;31.98;34.90;;
70740;Laerm;58330;51.888;11.052;2023-05-07T01:56:33;33.39;32.05;34.89;;
70740;Laerm;58330;51.888;11.052;2023-05-07T01:59:01;33.36;31.68;34.99;;
70740;Laerm;58330;51.888;11.052;2023-05-07T02:01:28;33.43;31.81;34.97;;
70740;Laerm;58330;51.888;11.052;2023-05-07T02:03:54;33.47;31.90;36.70;;
70740;Laerm;58330;51.888;11.052;2023-05-07T02:06:21;33.48;31.94;39.22;;
70740;Laerm;58330;51.888;11.052;2023-05-07T02:08:47;33.46;32.08;36.70;;
70740;Laerm;58330;51.888;11.052;2023-05-07T02:11:13;33.37;31.98;34.52;;
70740;Laerm;58330;51.888;11.052;2023-05-07T02:13:41;33.34;32.07;34.50;;
70740;Laerm;58330;51.888;11.052;2023-05-07T02:16:09;33.38;31.97;34.54;;
70740;Laerm;58330;51.888;11.052;2023-05-07T02:18:35;33.40;32.05;34.85;;
70740;Laerm;58330;51.888;11.052;2023-05-07T02:21:02;33.42;32.19;34.74;;
70740;Laerm;58330;51.888;11.052;2023-05-07T02:23:29;33.37;32.03;34.55;;
70740;Laerm;58330;51.888;11.052;2023-05-07T02:25:55;33.39;32.17;34.57;;
70740;Laerm;58330;51.888;11.052;2023-05-07T02:28:21;33.43;31.98;35.12;;
70740;Laerm;58330;51.888;11.052;2023-05-07T02:30:48;33.42;32.14;34.72;;
70740;Laerm;58330;51.888;11.052;2023-05-07T02:33:16;33.39;31.93;34.89;;
70740;Laerm;58330;51.888;11.052;2023-05-07T02:35:42;33.38;31.80;35.48;;
70740;Laerm;58330;51.888;11.052;2023-05-07T02:38:08;33.43;31.88;36.78;;
70740;Laerm;58330;51.888;11.052;2023-05-07T02:40:35;33.42;31.96;34.60;;
70740;Laerm;58330;51.888;11.052;2023-05-07T02:43:03;33.48;32.10;35.26;;
70740;Laerm;58330;51.888;11.052;2023-05-07T02:45:30;33.39;32.15;34.58;;
70740;Laerm;58330;51.888;11.052;2023-05-07T02:47:56;33.37;32.06;34.61;;
70740;Laerm;58330;51.888;11.052;2023-05-07T02:50:24;33.37;32.12;34.58;;
70740;Laerm;58330;51.888;11.052;2023-05-07T02:52:51;33.38;32.13;35.24;;
70740;Laerm;58330;51.888;11.052;2023-05-07T02:55:18;33.39;31.95;36.05;;
70740;Laerm;58330;51.888;11.052;2023-05-07T02:57:44;33.40;32.09;34.82;;
70740;Laerm;58330;51.888;11.052;2023-05-07T03:00:11;33.41;32.08;36.24;;
70740;Laerm;58330;51.888;11.052;2023-05-07T03:02:38;33.40;32.08;37.13;;
70740;Laerm;58330;51.888;11.052;2023-05-07T03:05:05;33.45;32.06;36.83;;
70740;Laerm;58330;51.888;11.052;2023-05-07T03:07:33;33.41;32.30;34.75;;
70740;Laerm;58330;51.888;11.052;2023-05-07T03:09:59;33.42;32.04;35.96;;
70740;Laerm;58330;51.888;11.052;2023-05-07T03:12:25;33.43;31.52;36.80;;
70740;Laerm;58330;51.888;11.052;2023-05-07T03:14:52;33.44;32.21;35.57;;
70740;Laerm;58330;51.888;11.052;2023-05-07T03:17:18;33.45;32.15;35.23;;
70740;Laerm;58330;51.888;11.052;2023-05-07T03:19:44;33.44;32.14;34.97;;
70740;Laerm;58330;51.888;11.052;2023-05-07T03:22:11;33.52;31.95;38.38;;
70740;Laerm;58330;51.888;11.052;2023-05-07T03:24:38;33.41;32.22;34.68;;
70740;Laerm;58330;51.888;11.052;2023-05-07T03:27:05;33.42;31.78;35.65;;
70740;Laerm;58330;51.888;11.052;2023-05-07T03:29:31;33.39;32.07;34.70;;
70740;Laerm;58330;51.888;11.052;2023-05-07T03:31:57;33.50;32.02;36.22;;
70740;Laerm;58330;51.888;11.052;2023-05-07T03:34:24;33.47;31.97;36.00;;
70740;Laerm;58330;51.888;11.052;2023-05-07T03:39:45;33.47;32.15;36.63;;
70740;Laerm;58330;51.888;11.052;2023-05-07T03:42:12;33.49;32.27;35.34;;
70740;Laerm;58330;51.888;11.052;2023-05-07T03:44:38;33.54;32.25;35.90;;
70740;Laerm;58330;51.888;11.052;2023-05-07T03:47:05;33.68;32.36;35.93;;
70740;Laerm;58330;51.888;11.052;2023-05-07T03:49:31;33.76;32.43;36.17;;
70740;Laerm;58330;51.888;11.052;2023-05-07T03:51:57;33.63;32.13;35.29;;
70740;Laerm;58330;51.888;11.052;2023-05-07T03:54:24;33.74;32.41;37.75;;
70740;Laerm;58330;51.888;11.052;2023-05-07T03:56:51;33.79;32.30;35.13;;
70740;Laerm;58330;51.888;11.052;2023-05-07T03:59:18;33.74;32.34;35.15;;
70740;Laerm;58330;51.888;11.052;2023-05-07T04:01:44;33.80;32.11;35.50;;
70740;Laerm;58330;51.888;11.052;2023-05-07T04:04:10;33.79;32.34;35.23;;
70740;Laerm;58330;51.888;11.052;2023-05-07T04:06:37;33.81;32.36;36.57;;
70740;Laerm;58330;51.888;11.052;2023-05-07T04:09:03;33.94;32.54;38.87;;
70740;Laerm;58330;51.888;11.052;2023-05-07T04:11:29;33.80;32.49;35.27;;
70740;Laerm;58330;51.888;11.052;2023-05-07T04:13:57;33.90;32.58;35.75;;
70740;Laerm;58330;51.888;11.052;2023-05-07T04:16:24;33.97;32.56;36.11;;
70740;Laerm;58330;51.888;11.052;2023-05-07T04:18:50;34.27;32.53;40.42;;
70740;Laerm;58330;51.888;11.052;2023-05-07T04:21:17;34.18;32.35;38.35;;
70740;Laerm;58330;51.888;11.052;2023-05-07T04:23:43;33.87;32.51;36.02;;
70740;Laerm;58330;51.888;11.052;2023-05-07T04:26:10;33.67;32.06;35.23;;
70740;Laerm;58330;51.888;11.052;2023-05-07T04:28:36;33.68;32.28;35.69;;
70740;Laerm;58330;51.888;11.052;2023-05-07T04:31:04;33.75;32.43;35.85;;
70740;Laerm;58330;51.888;11.052;2023-05-07T04:33:40;33.80;32.18;36.67;;
70740;Laerm;58330;51.888;11.052;2023-05-07T04:36:06;34.14;32.42;40.11;;
70740;Laerm;58330;51.888;11.052;2023-05-07T04:38:33;33.79;32.44;37.88;;
70740;Laerm;58330;51.888;11.052;2023-05-07T04:41:02;33.82;31.99;35.88;;
70740;Laerm;58330;51.888;11.052;2023-05-07T04:43:29;33.82;32.49;36.72;;
70740;Laerm;58330;51.888;11.052;2023-05-07T04:45:55;33.74;32.37;36.21;;
70740;Laerm;58330;51.888;11.052;2023-05-07T04:48:23;33.73;32.42;35.13;;
70740;Laerm;58330;51.888;11.052;2023-05-07T04:50:50;33.80;32.32;36.21;;
70740;Laerm;58330;51.888;11.052;2023-05-07T04:53:16;33.76;32.46;35.59;;
70740;Laerm;58330;51.888;11.052;2023-05-07T04:55:42;33.75;32.43;35.93;;
70740;Laerm;58330;51.888;11.052;2023-05-07T04:58:09;33.98;32.41;36.71;;
70740;Laerm;58330;51.888;11.052;2023-05-07T05:00:36;33.85;32.44;38.01;;
70740;Laerm;58330;51.888;11.052;2023-05-07T05:03:03;33.97;32.62;36.53;;
70740;Laerm;58330;51.888;11.052;2023-05-07T05:05:31;33.95;32.29;36.63;;
70740;Laerm;58330;51.888;11.052;2023-05-07T05:07:57;33.86;32.48;38.10;;
70740;Laerm;58330;51.888;11.052;2023-05-07T05:10:24;33.96;32.47;37.79;;
70740;Laerm;58330;51.888;11.052;2023-05-07T05:12:51;33.79;32.33;35.64;;
70740;Laerm;58330;51.888;11.052;2023-05-07T05:15:17;34.18;32.47;39.08;;
70740;Laerm;58330;51.888;11.052;2023-05-07T05:17:43;33.71;32.34;36.14;;
70740;Laerm;58330;51.888;11.052;2023-05-07T05:20:10;33.71;32.35;35.16;;
70740;Laerm;58330;51.888;11.052;2023-05-07T05:22:38;33.84;32.49;35.88;;
70740;Laerm;58330;51.888;11.052;2023-05-07T05:25:05;34.00;32.54;38.22;;
70740;Laerm;58330;51.888;11.052;2023-05-07T05:27:31;33.74;32.24;35.03;;
70740;Laerm;58330;51.888;11.052;2023-05-07T05:29:57;33.76;32.38;35.16;;
70740;Laerm;58330;51.888;11.052;2023-05-07T05:32:24;33.80;32.49;35.14;;
70740;Laerm;58330;51.888;11.052;2023-05-07T05:34:50;33.89;32.57;35.38;;
70740;Laerm;58330;51.888;11.052;2023-05-07T05:37:17;33.68;32.23;35.10;;
70740;Laerm;58330;51.888;11.052;2023-05-07T05:39:44;33.62;32.25;34.90;;
70740;Laerm;58330;51.888;11.052;2023-05-07T05:42:11;33.67;32.29;34.83;;
70740;Laerm;58330;51.888;11.052;2023-05-07T05:44:37;33.70;32.43;34.88;;
70740;Laerm;58330;51.888;11.052;2023-05-07T05:47:03;33.71;32.44;35.08;;
70740;Laerm;58330;51.888;11.052;2023-05-07T05:49:30;33.68;32.42;34.85;;
70740;Laerm;58330;51.888;11.052;2023-05-07T05:51:56;33.71;32.34;34.90;;
70740;Laerm;58330;51.888;11.052;2023-05-07T05:54:22;33.67;32.10;35.00;;
70740;Laerm;58330;51.888;11.052;2023-05-07T05:56:50;33.76;32.28;36.97;;
70740;Laerm;58330;51.888;11.052;2023-05-07T05:59:16;33.79;32.31;37.68;;
70740;Laerm;58330;51.888;11.052;2023-05-07T06:01:43;33.81;32.53;43.64;;
70740;Laerm;58330;51.888;11.052;2023-05-07T06:04:09;33.89;32.45;39.24;;
70740;Laerm;58330;51.888;11.052;2023-05-07T06:06:35;34.45;32.41;39.08;;
70740;Laerm;58330;51.888;11.052;2023-05-07T06:09:02;34.11;32.60;38.27;;
70740;Laerm;58330;51.888;11.052;2023-05-07T06:11:28;34.78;32.81;39.17;;
70740;Laerm;58330;51.888;11.052;2023-05-07T06:13:56;34.26;32.12;40.46;;
70740;Laerm;58330;51.888;11.052;2023-05-07T06:16:22;34.58;32.69;43.22;;
70740;Laerm;58330;51.888;11.052;2023-05-07T06:18:50;34.48;32.65;42.98;;
70740;Laerm;58330;51.888;11.052;2023-05-07T06:21:16;34.56;32.68;42.83;;
70740;Laerm;58330;51.888;11.052;2023-05-07T06:23:42;34.40;32.84;41.12;;
70740;Laerm;58330;51.888;11.052;2023-05-07T06:26:09;34.45;32.48;38.49;;
70740;Laerm;58330;51.888;11.052;2023-05-07T06:28:35;34.23;32.68;43.00;;
70740;Laerm;58330;51.888;11.052;2023-05-07T06:31:13;34.36;32.56;43.29;;
70740;Laerm;58330;51.888;11.052;2023-05-07T06:33:39;34.15;32.50;43.15;;
70740;Laerm;58330;51.888;11.052;2023-05-07T06:36:06;34.05;32.30;40.74;;
70740;Laerm;58330;51.888;11.052;2023-05-07T06:38:32;33.92;32.50;36.68;;
70740;Laerm;58330;51.888;11.052;2023-05-07T06:40:59;33.91;32.57;37.49;;
70740;Laerm;58330;51.888;11.052;2023-05-07T06:43:25;33.99;32.48;39.10;;
70740;Laerm;58330;51.888;11.052;2023-05-07T06:45:51;33.91;32.34;37.88;;
70740;Laerm;58330;51.888;11.052;2023-05-07T06:48:19;33.95;32.39;37.68;;
70740;Laerm;58330;51.888;11.052;2023-05-07T06:50:46;33.93;32.51;38.24;;
70740;Laerm;58330;51.888;11.052;2023-05-07T06:53:12;34.01;32.35;38.64;;
70740;Laerm;58330;51.888;11.052;2023-05-07T06:55:38;34.11;32.51;38.01;;
70740;Laerm;58330;51.888;11.052;2023-05-07T06:58:04;33.96;32.52;40.12;;
70740;Laerm;58330;51.888;11.052;2023-05-07T07:00:46;33.78;32.32;35.49;;
70740;Laerm;58330;51.888;11.052;2023-05-07T07:03:12;33.78;32.34;35.01;;
70740;Laerm;58330;51.888;11.052;2023-05-07T07:05:41;33.75;32.35;35.21;;
70740;Laerm;58330;51.888;11.052;2023-05-07T07:08:07;33.71;32.50;34.99;;
70740;Laerm;58330;51.888;11.052;2023-05-07T07:10:33;33.86;32.46;36.88;;
70740;Laerm;58330;51.888;11.052;2023-05-07T07:13:00;34.23;32.60;40.99;;
70740;Laerm;58330;51.888;11.052;2023-05-07T07:15:26;34.76;32.66;42.37;;
70740;Laerm;58330;51.888;11.052;2023-05-07T07:17:52;35.55;32.65;44.02;;
70740;Laerm;58330;51.888;11.052;2023-05-07T07:20:18;35.34;32.58;43.08;;
70740;Laerm;58330;51.888;11.052;2023-05-07T07:22:46;34.77;32.65;43.99;;
70740;Laerm;58330;51.888;11.052;2023-05-07T07:25:12;34.22;32.27;40.44;;
70740;Laerm;58330;51.888;11.052;2023-05-07T07:27:38;33.94;32.68;38.31;;
70740;Laerm;58330;51.888;11.052;2023-05-07T07:30:05;33.90;32.70;35.28;;
70740;Laerm;58330;51.888;11.052;2023-05-07T07:32:32;33.87;32.12;35.73;;
70740;Laerm;58330;51.888;11.052;2023-05-07T07:34:58;33.86;32.57;35.05;;
70740;Laerm;58330;51.888;11.052;2023-05-07T07:37:25;33.81;32.44;39.16;;
70740;Laerm;58330;51.888;11.052;2023-05-07T07:39:52;33.76;32.37;35.03;;
70740;Laerm;58330;51.888;11.052;2023-05-07T07:42:19;33.77;32.53;34.92;;
70740;Laerm;58330;51.888;11.052;2023-05-07T07:44:45;33.75;32.30;34.95;;
70740;Laerm;58330;51.888;11.052;2023-05-07T07:47:11;33.73;32.49;35.07;;
70740;Laerm;58330;51.888;11.052;2023-05-07T07:49:38;33.72;32.40;35.05;;
70740;Laerm;58330;51.888;11.052;2023-05-07T07:52:04;33.71;32.38;34.86;;
70740;Laerm;58330;51.888;11.052;2023-05-07T07:54:30;33.71;32.38;35.10;;
70740;Laerm;58330;51.888;11.052;2023-05-07T07:56:58;33.74;32.34;35.25;;
70740;Laerm;58330;51.888;11.052;2023-05-07T07:59:26;33.81;32.38;43.24;;
70740;Laerm;58330;51.888;11.052;2023-05-07T08:01:52;33.74;32.33;35.21;;
70740;Laerm;58330;51.888;11.052;2023-05-07T08:04:20;33.77;32.20;35.24;;
70740;Laerm;58330;51.888;11.052;2023-05-07T08:06:47;33.75;32.30;35.17;;
70740;Laerm;58330;51.888;11.052;2023-05-07T08:09:13;33.74;32.42;35.36;;
70740;Laerm;58330;51.888;11.052;2023-05-07T08:11:39;33.70;32.39;34.87;;
70740;Laerm;58330;51.888;11.052;2023-05-07T08:14:07;33.75;32.36;34.97;;
70740;Laerm;58330;51.888;11.052;2023-05-07T08:16:33;33.73;32.29;35.04;;
70740;Laerm;58330;51.888;11.052;2023-05-07T08:19:00;33.77;32.49;35.00;;
70740;Laerm;58330;51.888;11.052;2023-05-07T08:21:26;33.78;32.47;34.88;;
70740;Laerm;58330;51.888;11.052;2023-05-07T08:23:52;33.79;32.55;35.03;;
70740;Laerm;58330;51.888;11.052;2023-05-07T08:26:18;33.84;32.68;35.73;;
70740;Laerm;58330;51.888;11.052;2023-05-07T08:28:45;33.87;32.28;35.18;;
70740;Laerm;58330;51.888;11.052;2023-05-07T08:31:13;33.79;32.55;35.02;;
70740;Laerm;58330;51.888;11.052;2023-05-07T08:33:39;33.81;32.51;35.10;;
70740;Laerm;58330;51.888;11.052;2023-05-07T08:36:06;33.79;32.64;35.20;;
70740;Laerm;58330;51.888;11.052;2023-05-07T08:38:33;33.73;32.22;35.14;;
70740;Laerm;58330;51.888;11.052;2023-05-07T08:41:00;33.70;32.41;34.90;;
70740;Laerm;58330;51.888;11.052;2023-05-07T08:43:26;33.72;32.38;35.03;;
70740;Laerm;58330;51.888;11.052;2023-05-07T08:45:53;33.70;32.58;34.86;;
70740;Laerm;58330;51.888;11.052;2023-05-07T08:48:21;33.69;32.48;34.86;;
70740;Laerm;58330;51.888;11.052;2023-05-07T08:50:48;33.84;32.50;36.53;;
70740;Laerm;58330;51.888;11.052;2023-05-07T08:53:14;33.69;32.39;35.07;;
70740;Laerm;58330;51.888;11.052;2023-05-07T08:55:42;33.73;32.42;34.85;;
70740;Laerm;58330;51.888;11.052;2023-05-07T08:58:08;33.75;32.35;34.98;;
70740;Laerm;58330;51.888;11.052;2023-05-07T09:00:35;33.74;32.19;35.04;;
70740;Laerm;58330;51.888;11.052;2023-05-07T09:03:02;33.76;32.42;35.30;;
70740;Laerm;58330;51.888;11.052;2023-05-07T09:05:29;33.75;32.24;34.97;;
70740;Laerm;58330;51.888;11.052;2023-05-07T09:07:58;33.78;32.40;35.68;;
70740;Laerm;58330;51.888;11.052;2023-05-07T09:10:25;33.77;32.43;35.10;;
70740;Laerm;58330;51.888;11.052;2023-05-07T09:12:51;33.78;32.54;35.16;;
70740;Laerm;58330;51.888;11.052;2023-05-07T09:15:18;33.78;32.52;35.05;;
70740;Laerm;58330;51.888;11.052;2023-05-07T09:17:44;33.75;32.56;35.25;;
70740;Laerm;58330;51.888;11.052;2023-05-07T09:20:10;56.91;-324.78;93.13;;
70740;Laerm;58330;51.888;11.052;2023-05-07T09:22:38;5.00;5.00;5.00;;
70740;Laerm;58330;51.888;11.052;2023-05-07T09:25:05;5.00;5.00;5.00;;
70740;Laerm;58330;51.888;11.052;2023-05-07T09:27:31;5.00;5.00;5.00;;
70740;Laerm;58330;51.888;11.052;2023-05-07T09:29:58;5.00;5.00;5.00;;
70740;Laerm;58330;51.888;11.052;2023-05-07T09:32:24;5.00;5.00;5.00;;
70740;Laerm;58330;51.888;11.052;2023-05-07T09:34:52;5.00;5.00;5.00;;
70740;Laerm;58330;51.888;11.052;2023-05-07T09:37:18;5.00;5.00;5.00;;
70740;Laerm;58330;51.888;11.052;2023-05-07T09:39:47;5.00;5.00;5.00;;
70740;Laerm;58330;51.888;11.052;2023-05-07T09:42:14;5.00;5.00;5.00;;
70740;Laerm;58330;51.888;11.052;2023-05-07T09:44:41;5.00;5.00;5.00;;
70740;Laerm;58330;51.888;11.052;2023-05-07T09:47:09;5.00;5.00;5.00;;
70740;Laerm;58330;51.888;11.052;2023-05-07T09:49:36;5.00;5.00;5.00;;
70740;Laerm;58330;51.888;11.052;2023-05-07T09:52:04;5.00;5.00;5.00;;
70740;Laerm;58330;51.888;11.052;2023-05-07T09:54:33;5.00;5.00;5.00;;
70740;Laerm;58330;51.888;11.052;2023-05-07T09:57:02;5.00;5.00;5.00;;
70740;Laerm;58330;51.888;11.052;2023-05-07T09:59:29;5.00;5.00;5.00;;
70740;Laerm;58330;51.888;11.052;2023-05-07T10:01:57;5.00;5.00;5.00;;
70740;Laerm;58330;51.888;11.052;2023-05-07T10:04:24;5.00;5.00;5.00;;
70740;Laerm;58330;51.888;11.052;2023-05-07T10:06:51;5.00;5.00;5.00;;
70740;Laerm;58330;51.888;11.052;2023-05-07T10:09:18;5.00;5.00;5.00;;
70740;Laerm;58330;51.888;11.052;2023-05-07T10:11:45;5.00;5.00;5.00;;
70740;Laerm;58330;51.888;11.052;2023-05-07T10:14:22;5.00;5.00;5.00;;
70740;Laerm;58330;51.888;11.052;2023-05-07T10:16:49;5.00;5.00;5.00;;
70740;Laerm;58330;51.888;11.052;2023-05-07T10:19:31;5.00;5.00;5.00;;
70740;Laerm;58330;51.888;11.052;2023-05-07T10:22:00;5.00;5.00;5.00;;
70740;Laerm;58330;51.888;11.052;2023-05-07T10:24:29;5.00;5.00;5.00;;
70740;Laerm;58330;51.888;11.052;2023-05-07T10:26:55;5.00;5.00;5.00;;
70740;Laerm;58330;51.888;11.052;2023-05-07T10:29:28;5.00;5.00;5.00;;
70740;Laerm;58330;51.888;11.052;2023-05-07T10:31:58;5.00;5.00;5.00;;
70740;Laerm;58330;51.888;11.052;2023-05-07T10:34:26;5.00;5.00;5.00;;
70740;Laerm;58330;51.888;11.052;2023-05-07T10:36:53;5.00;5.00;5.00;;
70740;Laerm;58330;51.888;11.052;2023-05-07T10:39:21;5.00;5.00;5.00;;
70740;Laerm;58330;51.888;11.052;2023-05-07T10:41:48;5.00;5.00;5.00;;
70740;Laerm;58330;51.888;11.052;2023-05-07T10:44:25;5.00;5.00;5.00;;
70740;Laerm;58330;51.888;11.052;2023-05-07T10:47:05;5.00;5.00;5.00;;
70740;Laerm;58330;51.888;11.052;2023-05-07T10:49:34;5.00;5.00;5.00;;
70740;Laerm;58330;51.888;11.052;2023-05-07T10:52:13;5.00;5.00;5.00;;
70740;Laerm;58330;51.888;11.052;2023-05-07T10:54:41;5.00;5.00;5.00;;
70740;Laerm;58330;51.888;11.052;2023-05-07T10:59:55;5.00;5.00;5.00;;
70740;Laerm;58330;51.888;11.052;2023-05-07T11:02:22;5.00;5.00;5.00;;
70740;Laerm;58330;51.888;11.052;2023-05-07T11:05:01;5.00;5.00;5.00;;
70740;Laerm;58330;51.888;11.052;2023-05-07T11:07:44;5.00;5.00;5.00;;
70740;Laerm;58330;51.888;11.052;2023-05-07T11:10:19;5.00;5.00;5.00;;
70740;Laerm;58330;51.888;11.052;2023-05-07T11:12:46;5.00;5.00;5.00;;
70740;Laerm;58330;51.888;11.052;2023-05-07T11:15:14;5.00;5.00;5.00;;
70740;Laerm;58330;51.888;11.052;2023-05-07T11:17:51;5.00;5.00;5.00;;
70740;Laerm;58330;51.888;11.052;2023-05-07T11:20:19;5.00;5.00;5.00;;
70740;Laerm;58330;51.888;11.052;2023-05-07T11:22:46;5.00;5.00;5.00;;
70740;Laerm;58330;51.888;11.052;2023-05-07T11:25:17;5.00;5.00;5.00;;
70740;Laerm;58330;51.888;11.052;2023-05-07T11:27:43;5.00;5.00;5.00;;
70740;Laerm;58330;51.888;11.052;2023-05-07T11:30:10;5.00;5.00;5.00;;
70740;Laerm;58330;51.888;11.052;2023-05-07T11:32:38;5.00;5.00;5.00;;
70740;Laerm;58330;51.888;11.052;2023-05-07T11:35:05;5.00;5.00;5.00;;
70740;Laerm;58330;51.888;11.052;2023-05-07T11:37:32;5.00;5.00;5.00;;
70740;Laerm;58330;51.888;11.052;2023-05-07T11:40:02;5.00;5.00;5.00;;
70740;Laerm;58330;51.888;11.052;2023-05-07T11:42:29;5.00;5.00;5.00;;
70740;Laerm;58330;51.888;11.052;2023-05-07T11:44:56;5.00;5.00;5.00;;
70740;Laerm;58330;51.888;11.052;2023-05-07T11:47:22;5.00;5.00;5.00;;
70740;Laerm;58330;51.888;11.052;2023-05-07T11:49:52;5.00;5.00;5.00;;
70740;Laerm;58330;51.888;11.052;2023-05-07T11:52:19;5.00;5.00;5.00;;
70740;Laerm;58330;51.888;11.052;2023-05-07T11:54:48;5.00;5.00;5.00;;
70740;Laerm;58330;51.888;11.052;2023-05-07T11:57:15;5.00;5.00;5.00;;
70740;Laerm;58330;51.888;11.052;2023-05-07T11:59:42;5.00;5.00;5.00;;
70740;Laerm;58330;51.888;11.052;2023-05-07T12:02:09;5.00;5.00;5.00;;
70740;Laerm;58330;51.888;11.052;2023-05-07T12:04:35;5.00;5.00;5.00;;
70740;Laerm;58330;51.888;11.052;2023-05-07T12:07:03;5.00;5.00;5.00;;
70740;Laerm;58330;51.888;11.052;2023-05-07T12:09:31;5.00;5.00;5.00;;
70740;Laerm;58330;51.888;11.052;2023-05-07T12:12:02;5.00;5.00;5.00;;
70740;Laerm;58330;51.888;11.052;2023-05-07T12:14:29;5.00;5.00;5.00;;
70740;Laerm;58330;51.888;11.052;2023-05-07T12:16:55;5.00;5.00;5.00;;
70740;Laerm;58330;51.888;11.052;2023-05-07T12:19:22;5.00;5.00;5.00;;
70740;Laerm;58330;51.888;11.052;2023-05-07T12:21:48;5.00;5.00;5.00;;
70740;Laerm;58330;51.888;11.052;2023-05-07T12:24:16;5.00;5.00;5.00;;
70740;Laerm;58330;51.888;11.052;2023-05-07T12:26:43;5.00;5.00;5.00;;
70740;Laerm;58330;51.888;11.052;2023-05-07T12:29:09;5.00;5.00;5.00;;
70740;Laerm;58330;51.888;11.052;2023-05-07T12:31:36;5.00;5.00;5.00;;
70740;Laerm;58330;51.888;11.052;2023-05-07T12:34:02;5.00;5.00;5.00;;
70740;Laerm;58330;51.888;11.052;2023-05-07T12:36:35;5.00;5.00;5.00;;
70740;Laerm;58330;51.888;11.052;2023-05-07T12:39:03;5.00;5.00;5.00;;
70740;Laerm;58330;51.888;11.052;2023-05-07T12:41:34;5.00;5.00;5.00;;
70740;Laerm;58330;51.888;11.052;2023-05-07T12:44:02;5.00;5.00;5.00;;
70740;Laerm;58330;51.888;11.052;2023-05-07T12:46:30;5.00;5.00;5.00;;
70740;Laerm;58330;51.888;11.052;2023-05-07T12:48:56;5.00;5.00;5.00;;
70740;Laerm;58330;51.888;11.052;2023-05-07T12:51:22;5.00;5.00;5.00;;
70740;Laerm;58330;51.888;11.052;2023-05-07T12:53:49;5.00;5.00;5.00;;
70740;Laerm;58330;51.888;11.052;2023-05-07T12:56:15;5.00;5.00;5.00;;
70740;Laerm;58330;51.888;11.052;2023-05-07T12:58:43;5.00;5.00;5.00;;
70740;Laerm;58330;51.888;11.052;2023-05-07T13:01:09;5.00;5.00;5.00;;
70740;Laerm;58330;51.888;11.052;2023-05-07T13:03:40;5.00;5.00;5.00;;
70740;Laerm;58330;51.888;11.052;2023-05-07T13:06:07;5.00;5.00;5.00;;
70740;Laerm;58330;51.888;11.052;2023-05-07T13:08:35;5.00;5.00;5.00;;
70740;Laerm;58330;51.888;11.052;2023-05-07T13:11:02;5.00;5.00;5.00;;
70740;Laerm;58330;51.888;11.052;2023-05-07T13:13:45;5.00;5.00;5.00;;
70740;Laerm;58330;51.888;11.052;2023-05-07T13:16:12;5.00;5.00;5.00;;
70740;Laerm;58330;51.888;11.052;2023-05-07T13:18:38;5.00;5.00;5.00;;
70740;Laerm;58330;51.888;11.052;2023-05-07T13:21:05;5.00;5.00;5.00;;
70740;Laerm;58330;51.888;11.052;2023-05-07T13:23:31;5.00;5.00;5.00;;
70740;Laerm;58330;51.888;11.052;2023-05-07T13:25:58;5.00;5.00;5.00;;
70740;Laerm;58330;51.888;11.052;2023-05-07T13:28:24;5.00;5.00;5.00;;
70740;Laerm;58330;51.888;11.052;2023-05-07T13:30:52;5.00;5.00;5.00;;
70740;Laerm;58330;51.888;11.052;2023-05-07T13:33:19;5.00;5.00;5.00;;
70740;Laerm;58330;51.888;11.052;2023-05-07T13:35:45;5.00;5.00;5.00;;
70740;Laerm;58330;51.888;11.052;2023-05-07T13:38:12;5.00;5.00;5.00;;
70740;Laerm;58330;51.888;11.052;2023-05-07T13:40:38;5.00;5.00;5.00;;
70740;Laerm;58330;51.888;11.052;2023-05-07T13:43:05;5.00;5.00;5.00;;
70740;Laerm;58330;51.888;11.052;2023-05-07T13:45:31;5.00;5.00;5.00;;
70740;Laerm;58330;51.888;11.052;2023-05-07T13:47:59;5.00;5.00;5.00;;
70740;Laerm;58330;51.888;11.052;2023-05-07T13:50:25;5.00;5.00;5.00;;